sensor_id;sensor_type;location;lat;lon;timestamp;pressure;altitude;pressure_sealevel;temperature;humidity
62164;BME280;48149;51.132;7.178;2023-09-08T00:02:24;98924.09;;;40.54;28.37
62164;BME280;48149;51.132;7.178;2023-09-08T00:04:50;98916.16;;;39.25;29.81
62164;BME280;48149;51.132;7.178;2023-09-08T00:07:15;98919.16;;;39.69;29.67
62164;BME280;48149;51.132;7.178;2023-09-08T00:09:40;98913.31;;;40.74;28.25
62164;BME280;48149;51.132;7.178;2023-09-08T00:12:05;98924.09;;;41.32;27.61
62164;BME280;48149;51.132;7.178;2023-09-08T00:14:31;98914.31;;;40.53;28.63
62164;BME280;48149;51.132;7.178;2023-09-08T00:16:56;98916.25;;;38.75;30.66
62164;BME280;48149;51.132;7.178;2023-09-08T00:19:22;98914.81;;;39.75;29.36
62164;BME280;48149;51.132;7.178;2023-09-08T00:21:50;98912.28;;;40.57;28.18
62164;BME280;48149;51.132;7.178;2023-09-08T00:24:16;98905.97;;;39.36;29.62
62164;BME280;48149;51.132;7.178;2023-09-08T00:26:41;98902.84;;;40.07;28.49
62164;BME280;48149;51.132;7.178;2023-09-08T00:29:06;98905.28;;;40.49;28.18
62164;BME280;48149;51.132;7.178;2023-09-08T00:31:32;98898.31;;;38.39;30.86
62164;BME280;48149;51.132;7.178;2023-09-08T00:33:58;98902.31;;;39.60;29.26
62164;BME280;48149;51.132;7.178;2023-09-08T00:36:23;98905.00;;;40.84;27.83
62164;BME280;48149;51.132;7.178;2023-09-08T00:38:48;98906.50;;;40.89;27.55
62164;BME280;48149;51.132;7.178;2023-09-08T00:41:13;98907.63;;;40.54;27.96
62164;BME280;48149;51.132;7.178;2023-09-08T00:43:39;98905.28;;;39.94;28.46
62164;BME280;48149;51.132;7.178;2023-09-08T00:46:04;98897.66;;;40.23;28.13
62164;BME280;48149;51.132;7.178;2023-09-08T00:48:29;98907.41;;;42.57;25.66
62164;BME280;48149;51.132;7.178;2023-09-08T00:50:55;98904.84;;;40.03;28.43
62164;BME280;48149;51.132;7.178;2023-09-08T00:53:21;98910.59;;;41.45;26.66
62164;BME280;48149;51.132;7.178;2023-09-08T00:55:46;98901.16;;;40.75;27.52
62164;BME280;48149;51.132;7.178;2023-09-08T00:58:12;98910.59;;;40.70;27.36
62164;BME280;48149;51.132;7.178;2023-09-08T01:00:38;98898.81;;;39.56;28.80
62164;BME280;48149;51.132;7.178;2023-09-08T01:03:03;98910.31;;;40.06;28.28
62164;BME280;48149;51.132;7.178;2023-09-08T01:05:28;98909.13;;;41.97;26.07
62164;BME280;48149;51.132;7.178;2023-09-08T01:07:53;98905.94;;;40.16;27.56
62164;BME280;48149;51.132;7.178;2023-09-08T01:10:20;98910.13;;;40.34;27.59
62164;BME280;48149;51.132;7.178;2023-09-08T01:12:45;98900.13;;;40.10;27.84
62164;BME280;48149;51.132;7.178;2023-09-08T01:15:11;98904.56;;;39.86;28.21
62164;BME280;48149;51.132;7.178;2023-09-08T01:17:37;98905.38;;;39.83;28.27
62164;BME280;48149;51.132;7.178;2023-09-08T01:20:07;98901.69;;;40.04;27.77
62164;BME280;48149;51.132;7.178;2023-09-08T01:23:18;98902.28;;;39.74;28.48
62164;BME280;48149;51.132;7.178;2023-09-08T01:25:24;98911.38;;;39.50;28.29
62164;BME280;48149;51.132;7.178;2023-09-08T01:27:50;98904.16;;;38.80;29.58
62164;BME280;48149;51.132;7.178;2023-09-08T01:30:17;98904.28;;;39.63;28.08
62164;BME280;48149;51.132;7.178;2023-09-08T01:32:43;98908.59;;;39.64;28.63
62164;BME280;48149;51.132;7.178;2023-09-08T01:35:09;98918.22;;;40.93;26.83
62164;BME280;48149;51.132;7.178;2023-09-08T01:37:34;98901.91;;;39.65;28.27
62164;BME280;48149;51.132;7.178;2023-09-08T01:39:59;98900.84;;;40.18;27.55
62164;BME280;48149;51.132;7.178;2023-09-08T01:42:24;98901.13;;;40.78;26.93
62164;BME280;48149;51.132;7.178;2023-09-08T01:44:50;98894.00;;;39.85;28.13
62164;BME280;48149;51.132;7.178;2023-09-08T01:47:15;98902.44;;;40.63;26.88
62164;BME280;48149;51.132;7.178;2023-09-08T01:49:40;98901.78;;;40.89;26.23
62164;BME280;48149;51.132;7.178;2023-09-08T01:52:06;98895.25;;;40.28;27.37
62164;BME280;48149;51.132;7.178;2023-09-08T01:54:31;98891.84;;;39.44;28.23
62164;BME280;48149;51.132;7.178;2023-09-08T01:56:56;98895.03;;;39.29;27.97
62164;BME280;48149;51.132;7.178;2023-09-08T01:59:22;98889.13;;;40.14;27.54
62164;BME280;48149;51.132;7.178;2023-09-08T02:01:47;98887.44;;;39.65;27.92
62164;BME280;48149;51.132;7.178;2023-09-08T02:04:12;98887.34;;;39.82;27.90
62164;BME280;48149;51.132;7.178;2023-09-08T02:06:37;98887.63;;;39.98;27.62
62164;BME280;48149;51.132;7.178;2023-09-08T02:09:02;98884.53;;;39.06;28.64
62164;BME280;48149;51.132;7.178;2023-09-08T02:11:28;98885.84;;;40.29;27.25
62164;BME280;48149;51.132;7.178;2023-09-08T02:13:53;98890.75;;;40.01;26.58
62164;BME280;48149;51.132;7.178;2023-09-08T02:16:19;98890.06;;;39.86;26.99
62164;BME280;48149;51.132;7.178;2023-09-08T02:18:44;98887.19;;;39.31;27.42
62164;BME280;48149;51.132;7.178;2023-09-08T02:21:09;98891.94;;;39.13;27.88
62164;BME280;48149;51.132;7.178;2023-09-08T02:23:35;98890.00;;;40.48;26.69
62164;BME280;48149;51.132;7.178;2023-09-08T02:26:02;98882.22;;;39.88;27.23
62164;BME280;48149;51.132;7.178;2023-09-08T02:28:27;98883.28;;;40.05;27.16
62164;BME280;48149;51.132;7.178;2023-09-08T02:30:53;98876.97;;;39.42;27.47
62164;BME280;48149;51.132;7.178;2023-09-08T02:33:18;98882.22;;;40.43;26.35
62164;BME280;48149;51.132;7.178;2023-09-08T02:35:43;98884.03;;;40.60;26.20
62164;BME280;48149;51.132;7.178;2023-09-08T02:38:09;98884.03;;;40.60;26.34
62164;BME280;48149;51.132;7.178;2023-09-08T02:40:34;98872.03;;;39.02;27.46
62164;BME280;48149;51.132;7.178;2023-09-08T02:43:00;98881.03;;;38.99;27.41
62164;BME280;48149;51.132;7.178;2023-09-08T02:45:25;98878.44;;;39.71;27.14
62164;BME280;48149;51.132;7.178;2023-09-08T02:47:50;98874.50;;;39.65;26.94
62164;BME280;48149;51.132;7.178;2023-09-08T02:50:15;98877.81;;;39.21;27.33
62164;BME280;48149;51.132;7.178;2023-09-08T02:52:40;98875.81;;;39.43;27.19
62164;BME280;48149;51.132;7.178;2023-09-08T02:55:06;98882.56;;;39.07;27.90
62164;BME280;48149;51.132;7.178;2023-09-08T02:57:32;98875.06;;;39.32;27.23
62164;BME280;48149;51.132;7.178;2023-09-08T02:59:57;98877.47;;;39.09;27.89
62164;BME280;48149;51.132;7.178;2023-09-08T03:02:23;98875.53;;;39.06;27.96
62164;BME280;48149;51.132;7.178;2023-09-08T03:04:49;98868.56;;;38.73;27.70
62164;BME280;48149;51.132;7.178;2023-09-08T03:07:15;98872.28;;;39.46;26.63
62164;BME280;48149;51.132;7.178;2023-09-08T03:09:40;98872.22;;;39.53;26.89
62164;BME280;48149;51.132;7.178;2023-09-08T03:12:05;98879.44;;;39.05;27.34
62164;BME280;48149;51.132;7.178;2023-09-08T03:14:31;98874.78;;;39.88;26.60
62164;BME280;48149;51.132;7.178;2023-09-08T03:16:56;98877.25;;;40.75;25.82
62164;BME280;48149;51.132;7.178;2023-09-08T03:19:21;98869.22;;;39.19;26.59
62164;BME280;48149;51.132;7.178;2023-09-08T03:21:46;98866.94;;;38.97;27.07
62164;BME280;48149;51.132;7.178;2023-09-08T03:24:11;98875.41;;;41.03;25.34
62164;BME280;48149;51.132;7.178;2023-09-08T03:26:36;98872.41;;;39.00;27.60
62164;BME280;48149;51.132;7.178;2023-09-08T03:29:02;98875.72;;;40.71;25.70
62164;BME280;48149;51.132;7.178;2023-09-08T03:31:28;98882.19;;;40.91;25.41
62164;BME280;48149;51.132;7.178;2023-09-08T03:33:53;98875.66;;;40.78;25.02
62164;BME280;48149;51.132;7.178;2023-09-08T03:36:18;98868.94;;;40.79;25.24
62164;BME280;48149;51.132;7.178;2023-09-08T03:38:44;98865.81;;;38.23;28.35
62164;BME280;48149;51.132;7.178;2023-09-08T03:41:09;98859.16;;;39.82;26.61
62164;BME280;48149;51.132;7.178;2023-09-08T03:43:35;98868.16;;;38.85;27.83
62164;BME280;48149;51.132;7.178;2023-09-08T03:46:01;98866.34;;;39.58;26.54
62164;BME280;48149;51.132;7.178;2023-09-08T03:48:26;98862.78;;;39.68;26.59
62164;BME280;48149;51.132;7.178;2023-09-08T03:50:51;98853.72;;;39.75;26.20
62164;BME280;48149;51.132;7.178;2023-09-08T03:53:16;98857.38;;;39.47;26.58
62164;BME280;48149;51.132;7.178;2023-09-08T03:55:42;98852.66;;;39.51;26.52
62164;BME280;48149;51.132;7.178;2023-09-08T03:58:07;98860.78;;;39.72;26.43
62164;BME280;48149;51.132;7.178;2023-09-08T04:00:32;98870.13;;;38.84;27.32
62164;BME280;48149;51.132;7.178;2023-09-08T04:02:57;98870.13;;;38.28;28.05
62164;BME280;48149;51.132;7.178;2023-09-08T04:05:22;98866.09;;;39.17;27.19
62164;BME280;48149;51.132;7.178;2023-09-08T04:07:48;98863.25;;;39.49;26.46
62164;BME280;48149;51.132;7.178;2023-09-08T04:10:13;98872.50;;;38.40;27.89
62164;BME280;48149;51.132;7.178;2023-09-08T04:12:39;98871.56;;;39.28;26.66
62164;BME280;48149;51.132;7.178;2023-09-08T04:15:05;98875.28;;;39.73;26.53
62164;BME280;48149;51.132;7.178;2023-09-08T04:17:30;98870.03;;;39.06;27.34
62164;BME280;48149;51.132;7.178;2023-09-08T04:19:55;98871.22;;;39.08;27.28
62164;BME280;48149;51.132;7.178;2023-09-08T04:22:21;98869.34;;;39.81;26.72
62164;BME280;48149;51.132;7.178;2023-09-08T04:24:46;98873.66;;;38.25;27.63
62164;BME280;48149;51.132;7.178;2023-09-08T04:27:11;98868.50;;;38.98;27.34
62164;BME280;48149;51.132;7.178;2023-09-08T04:29:36;98867.00;;;38.86;26.97
62164;BME280;48149;51.132;7.178;2023-09-08T04:32:01;98863.09;;;37.92;28.32
62164;BME280;48149;51.132;7.178;2023-09-08T04:34:34;98871.38;;;39.63;27.17
62164;BME280;48149;51.132;7.178;2023-09-08T04:36:59;98872.75;;;37.64;28.49
62164;BME280;48149;51.132;7.178;2023-09-08T04:39:24;98871.28;;;37.95;28.72
62164;BME280;48149;51.132;7.178;2023-09-08T04:41:49;98874.41;;;38.15;28.52
62164;BME280;48149;51.132;7.178;2023-09-08T04:44:15;98867.88;;;39.59;26.67
62164;BME280;48149;51.132;7.178;2023-09-08T04:46:40;98872.41;;;39.04;27.59
62164;BME280;48149;51.132;7.178;2023-09-08T04:49:05;98866.91;;;37.73;29.17
62164;BME280;48149;51.132;7.178;2023-09-08T04:51:30;98865.44;;;38.60;27.80
62164;BME280;48149;51.132;7.178;2023-09-08T04:53:55;98871.69;;;38.01;28.63
62164;BME280;48149;51.132;7.178;2023-09-08T04:56:20;98874.66;;;37.46;29.42
62164;BME280;48149;51.132;7.178;2023-09-08T04:58:46;98867.03;;;38.51;27.96
62164;BME280;48149;51.132;7.178;2023-09-08T05:01:11;98872.03;;;37.88;28.73
62164;BME280;48149;51.132;7.178;2023-09-08T05:03:36;98871.53;;;37.51;29.27
62164;BME280;48149;51.132;7.178;2023-09-08T05:06:01;98877.63;;;39.74;26.60
62164;BME280;48149;51.132;7.178;2023-09-08T05:08:27;98870.13;;;38.10;28.54
62164;BME280;48149;51.132;7.178;2023-09-08T05:10:52;98876.75;;;38.02;28.48
62164;BME280;48149;51.132;7.178;2023-09-08T05:13:17;98875.72;;;37.24;29.37
62164;BME280;48149;51.132;7.178;2023-09-08T05:15:42;98874.81;;;38.63;27.68
62164;BME280;48149;51.132;7.178;2023-09-08T05:18:09;98871.69;;;38.85;27.60
62164;BME280;48149;51.132;7.178;2023-09-08T05:20:34;98870.28;;;39.50;26.58
62164;BME280;48149;51.132;7.178;2023-09-08T05:22:59;98872.69;;;39.37;26.72
62164;BME280;48149;51.132;7.178;2023-09-08T05:25:24;98869.09;;;39.51;26.61
62164;BME280;48149;51.132;7.178;2023-09-08T05:27:49;98872.53;;;39.73;26.14
62164;BME280;48149;51.132;7.178;2023-09-08T05:30:15;98871.28;;;38.87;27.32
62164;BME280;48149;51.132;7.178;2023-09-08T05:32:40;98873.91;;;39.29;27.29
62164;BME280;48149;51.132;7.178;2023-09-08T05:35:05;98866.81;;;39.39;26.46
62164;BME280;48149;51.132;7.178;2023-09-08T05:37:31;98868.94;;;38.71;27.33
62164;BME280;48149;51.132;7.178;2023-09-08T05:39:56;98873.28;;;38.44;27.60
62164;BME280;48149;51.132;7.178;2023-09-08T05:42:21;98877.81;;;39.32;26.90
62164;BME280;48149;51.132;7.178;2023-09-08T05:44:46;98876.41;;;38.57;27.75
62164;BME280;48149;51.132;7.178;2023-09-08T05:47:13;98877.88;;;39.07;27.18
62164;BME280;48149;51.132;7.178;2023-09-08T05:49:38;98886.66;;;40.30;25.63
62164;BME280;48149;51.132;7.178;2023-09-08T05:52:03;98875.59;;;39.85;26.31
62164;BME280;48149;51.132;7.178;2023-09-08T05:54:28;98875.56;;;38.95;27.20
62164;BME280;48149;51.132;7.178;2023-09-08T05:56:55;98880.69;;;39.83;26.32
62164;BME280;48149;51.132;7.178;2023-09-08T05:59:20;98881.69;;;40.62;25.62
62164;BME280;48149;51.132;7.178;2023-09-08T06:01:45;98884.50;;;39.10;27.27
62164;BME280;48149;51.132;7.178;2023-09-08T06:04:10;98887.50;;;40.20;26.39
62164;BME280;48149;51.132;7.178;2023-09-08T06:06:35;98892.34;;;39.08;26.98
62164;BME280;48149;51.132;7.178;2023-09-08T06:09:01;98884.13;;;39.94;26.48
62164;BME280;48149;51.132;7.178;2023-09-08T06:11:26;98891.19;;;39.02;27.80
62164;BME280;48149;51.132;7.178;2023-09-08T06:13:51;98891.88;;;40.14;26.73
62164;BME280;48149;51.132;7.178;2023-09-08T06:16:19;98891.06;;;40.65;25.99
62164;BME280;48149;51.132;7.178;2023-09-08T06:18:44;98898.56;;;40.57;25.82
62164;BME280;48149;51.132;7.178;2023-09-08T06:21:10;98890.84;;;39.90;27.22
62164;BME280;48149;51.132;7.178;2023-09-08T06:23:36;98895.25;;;39.63;27.21
62164;BME280;48149;51.132;7.178;2023-09-08T06:26:01;98901.31;;;39.26;27.49
62164;BME280;48149;51.132;7.178;2023-09-08T06:28:27;98900.75;;;39.59;26.76
62164;BME280;48149;51.132;7.178;2023-09-08T06:30:52;98899.72;;;37.83;29.08
62164;BME280;48149;51.132;7.178;2023-09-08T06:33:18;98906.09;;;38.65;28.79
62164;BME280;48149;51.132;7.178;2023-09-08T06:35:43;98894.69;;;39.09;28.10
62164;BME280;48149;51.132;7.178;2023-09-08T06:38:09;98887.84;;;39.60;27.71
62164;BME280;48149;51.132;7.178;2023-09-08T06:40:34;98888.34;;;40.10;26.94
62164;BME280;48149;51.132;7.178;2023-09-08T06:42:59;98895.53;;;40.44;26.42
62164;BME280;48149;51.132;7.178;2023-09-08T06:45:24;98892.66;;;40.07;26.83
62164;BME280;48149;51.132;7.178;2023-09-08T06:47:50;98897.69;;;40.67;26.87
62164;BME280;48149;51.132;7.178;2023-09-08T06:50:19;98892.97;;;39.51;28.43
62164;BME280;48149;51.132;7.178;2023-09-08T06:52:45;98899.84;;;41.24;25.89
62164;BME280;48149;51.132;7.178;2023-09-08T06:55:10;98898.44;;;40.71;26.02
62164;BME280;48149;51.132;7.178;2023-09-08T06:57:35;98905.69;;;40.95;26.71
62164;BME280;48149;51.132;7.178;2023-09-08T07:00:00;98901.53;;;40.29;27.06
62164;BME280;48149;51.132;7.178;2023-09-08T07:02:25;98907.81;;;41.48;25.98
62164;BME280;48149;51.132;7.178;2023-09-08T07:04:51;98904.41;;;41.41;25.79
62164;BME280;48149;51.132;7.178;2023-09-08T07:07:16;98907.56;;;41.96;25.07
62164;BME280;48149;51.132;7.178;2023-09-08T07:09:43;98908.06;;;42.15;25.22
62164;BME280;48149;51.132;7.178;2023-09-08T07:12:08;98912.50;;;42.82;25.10
62164;BME280;48149;51.132;7.178;2023-09-08T07:14:33;98908.94;;;43.04;24.40
62164;BME280;48149;51.132;7.178;2023-09-08T07:16:58;98910.50;;;43.25;24.60
62164;BME280;48149;51.132;7.178;2023-09-08T07:19:25;98905.75;;;43.26;24.91
62164;BME280;48149;51.132;7.178;2023-09-08T07:21:50;98907.06;;;41.11;27.43
62164;BME280;48149;51.132;7.178;2023-09-08T07:24:15;98913.28;;;42.82;24.86
62164;BME280;48149;51.132;7.178;2023-09-08T07:26:41;98899.25;;;43.91;24.08
62164;BME280;48149;51.132;7.178;2023-09-08T07:29:06;98906.16;;;42.62;25.42
62164;BME280;48149;51.132;7.178;2023-09-08T07:31:32;98907.53;;;40.65;27.18
62164;BME280;48149;51.132;7.178;2023-09-08T07:33:58;98910.47;;;44.00;24.20
62164;BME280;48149;51.132;7.178;2023-09-08T07:36:23;98911.97;;;43.10;25.03
62164;BME280;48149;51.132;7.178;2023-09-08T07:38:48;98915.41;;;43.73;24.38
62164;BME280;48149;51.132;7.178;2023-09-08T07:41:13;98907.72;;;42.13;25.61
62164;BME280;48149;51.132;7.178;2023-09-08T07:43:39;98913.72;;;43.60;24.98
62164;BME280;48149;51.132;7.178;2023-09-08T07:46:06;98913.16;;;43.09;25.10
62164;BME280;48149;51.132;7.178;2023-09-08T07:48:31;98908.69;;;42.95;24.82
62164;BME280;48149;51.132;7.178;2023-09-08T07:50:57;98908.59;;;43.42;24.49
62164;BME280;48149;51.132;7.178;2023-09-08T07:53:23;98909.75;;;42.09;26.25
62164;BME280;48149;51.132;7.178;2023-09-08T07:55:48;98912.13;;;41.49;26.46
62164;BME280;48149;51.132;7.178;2023-09-08T07:58:14;98912.19;;;42.03;26.07
62164;BME280;48149;51.132;7.178;2023-09-08T08:00:39;98918.63;;;44.40;24.34
62164;BME280;48149;51.132;7.178;2023-09-08T08:03:04;98904.06;;;43.12;24.99
62164;BME280;48149;51.132;7.178;2023-09-08T08:05:31;98919.59;;;43.97;24.71
62164;BME280;48149;51.132;7.178;2023-09-08T08:07:56;98918.44;;;44.47;24.06
62164;BME280;48149;51.132;7.178;2023-09-08T08:10:22;98904.97;;;42.39;25.90
62164;BME280;48149;51.132;7.178;2023-09-08T08:12:47;98915.75;;;42.96;25.42
62164;BME280;48149;51.132;7.178;2023-09-08T08:15:12;98908.31;;;43.72;25.08
62164;BME280;48149;51.132;7.178;2023-09-08T08:17:38;98906.56;;;43.46;24.44
62164;BME280;48149;51.132;7.178;2023-09-08T08:20:04;98922.53;;;43.90;25.54
62164;BME280;48149;51.132;7.178;2023-09-08T08:22:37;98921.91;;;46.89;22.27
62164;BME280;48149;51.132;7.178;2023-09-08T08:25:03;98916.94;;;44.10;24.39
62164;BME280;48149;51.132;7.178;2023-09-08T08:27:28;98922.25;;;45.68;23.14
62164;BME280;48149;51.132;7.178;2023-09-08T08:29:55;98925.22;;;43.94;24.42
62164;BME280;48149;51.132;7.178;2023-09-08T08:32:22;98915.78;;;44.60;24.27
62164;BME280;48149;51.132;7.178;2023-09-08T08:34:47;98915.31;;;43.41;25.70
62164;BME280;48149;51.132;7.178;2023-09-08T08:37:13;98930.22;;;45.79;23.87
62164;BME280;48149;51.132;7.178;2023-09-08T08:39:38;98915.31;;;43.41;25.10
62164;BME280;48149;51.132;7.178;2023-09-08T08:42:06;98919.97;;;44.48;25.04
62164;BME280;48149;51.132;7.178;2023-09-08T08:44:32;98924.38;;;46.27;23.50
62164;BME280;48149;51.132;7.178;2023-09-08T08:46:57;98914.44;;;44.48;24.70
62164;BME280;48149;51.132;7.178;2023-09-08T08:49:23;98919.00;;;42.22;26.53
62164;BME280;48149;51.132;7.178;2023-09-08T08:51:48;98909.72;;;43.44;25.56
62164;BME280;48149;51.132;7.178;2023-09-08T08:54:15;98912.78;;;45.12;24.40
62164;BME280;48149;51.132;7.178;2023-09-08T08:56:40;98910.38;;;46.31;23.28
62164;BME280;48149;51.132;7.178;2023-09-08T08:59:07;98918.66;;;45.01;23.09
62164;BME280;48149;51.132;7.178;2023-09-08T09:01:32;98917.59;;;44.18;24.98
62164;BME280;48149;51.132;7.178;2023-09-08T09:03:58;98913.22;;;44.81;23.51
62164;BME280;48149;51.132;7.178;2023-09-08T09:06:23;98915.59;;;47.32;22.47
62164;BME280;48149;51.132;7.178;2023-09-08T09:08:48;98914.41;;;43.83;25.29
62164;BME280;48149;51.132;7.178;2023-09-08T09:11:14;98915.31;;;44.29;24.73
62164;BME280;48149;51.132;7.178;2023-09-08T09:13:39;98920.22;;;45.15;23.93
62164;BME280;48149;51.132;7.178;2023-09-08T09:16:04;98916.06;;;47.52;22.53
62164;BME280;48149;51.132;7.178;2023-09-08T09:18:33;98923.06;;;48.05;21.23
62164;BME280;48149;51.132;7.178;2023-09-08T09:20:59;98915.91;;;47.12;22.24
62164;BME280;48149;51.132;7.178;2023-09-08T09:23:28;98922.34;;;52.34;18.52
62164;BME280;48149;51.132;7.178;2023-09-08T09:25:54;98929.03;;;51.13;19.30
62164;BME280;48149;51.132;7.178;2023-09-08T09:28:19;98922.59;;;52.96;18.36
62164;BME280;48149;51.132;7.178;2023-09-08T09:30:48;98931.25;;;51.09;19.97
62164;BME280;48149;51.132;7.178;2023-09-08T09:33:14;98919.31;;;53.55;17.68
62164;BME280;48149;51.132;7.178;2023-09-08T09:35:46;98913.94;;;52.34;17.92
62164;BME280;48149;51.132;7.178;2023-09-08T09:38:12;98921.09;;;54.32;16.96
62164;BME280;48149;51.132;7.178;2023-09-08T09:40:37;98916.19;;;52.96;17.37
62164;BME280;48149;51.132;7.178;2023-09-08T09:43:04;98914.91;;;52.31;18.21
62164;BME280;48149;51.132;7.178;2023-09-08T09:45:29;98921.63;;;55.89;16.17
62164;BME280;48149;51.132;7.178;2023-09-08T09:47:55;98914.66;;;54.79;16.65
62164;BME280;48149;51.132;7.178;2023-09-08T09:50:33;98912.59;;;53.72;16.65
62164;BME280;48149;51.132;7.178;2023-09-08T09:52:59;98907.34;;;52.77;17.97
62164;BME280;48149;51.132;7.178;2023-09-08T09:55:25;98922.03;;;56.84;15.19
62164;BME280;48149;51.132;7.178;2023-09-08T09:57:51;98916.53;;;55.71;16.02
62164;BME280;48149;51.132;7.178;2023-09-08T10:00:18;98918.03;;;55.11;16.32
62164;BME280;48149;51.132;7.178;2023-09-08T10:02:44;98915.25;;;55.61;16.45
62164;BME280;48149;51.132;7.178;2023-09-08T10:05:10;98911.41;;;57.96;15.02
62164;BME280;48149;51.132;7.178;2023-09-08T10:07:36;98913.22;;;55.67;16.18
62164;BME280;48149;51.132;7.178;2023-09-08T10:10:02;98906.91;;;58.31;14.35
62164;BME280;48149;51.132;7.178;2023-09-08T10:12:30;98905.25;;;54.23;17.08
62164;BME280;48149;51.132;7.178;2023-09-08T10:14:58;98900.94;;;54.92;16.73
62164;BME280;48149;51.132;7.178;2023-09-08T10:17:24;98903.19;;;57.14;15.27
62164;BME280;48149;51.132;7.178;2023-09-08T10:19:54;98907.50;;;57.75;14.20
62164;BME280;48149;51.132;7.178;2023-09-08T10:22:22;98908.50;;;54.69;16.85
62164;BME280;48149;51.132;7.178;2023-09-08T10:24:49;98911.41;;;54.97;15.78
62164;BME280;48149;51.132;7.178;2023-09-08T10:27:14;98899.91;;;56.64;14.94
62164;BME280;48149;51.132;7.178;2023-09-08T10:29:40;98912.28;;;58.28;14.24
62164;BME280;48149;51.132;7.178;2023-09-08T10:32:06;98908.38;;;55.73;15.20
62164;BME280;48149;51.132;7.178;2023-09-08T10:34:32;98910.56;;;56.19;14.54
62164;BME280;48149;51.132;7.178;2023-09-08T10:36:58;98913.47;;;57.66;14.26
62164;BME280;48149;51.132;7.178;2023-09-08T10:41:52;98910.25;;;59.36;13.59
62164;BME280;48149;51.132;7.178;2023-09-08T10:44:38;98912.88;;;60.65;13.48
62164;BME280;48149;51.132;7.178;2023-09-08T10:47:03;98910.53;;;60.16;14.00
62164;BME280;48149;51.132;7.178;2023-09-08T10:49:28;98904.13;;;60.16;13.67
62164;BME280;48149;51.132;7.178;2023-09-08T10:52:09;98895.63;;;57.82;15.16
62164;BME280;48149;51.132;7.178;2023-09-08T10:54:41;98905.63;;;58.32;14.76
62164;BME280;48149;51.132;7.178;2023-09-08T10:57:07;98905.28;;;61.63;13.06
62164;BME280;48149;51.132;7.178;2023-09-08T10:59:37;98902.28;;;59.66;13.60
62164;BME280;48149;51.132;7.178;2023-09-08T11:02:03;98909.91;;;60.23;13.96
62164;BME280;48149;51.132;7.178;2023-09-08T11:04:29;98901.84;;;57.51;15.53
62164;BME280;48149;51.132;7.178;2023-09-08T11:06:56;98907.50;;;60.14;13.87
62164;BME280;48149;51.132;7.178;2023-09-08T11:09:21;98905.34;;;62.35;12.66
62164;BME280;48149;51.132;7.178;2023-09-08T11:11:49;98905.88;;;59.35;14.46
62164;BME280;48149;51.132;7.178;2023-09-08T11:14:15;98912.25;;;59.80;13.56
62164;BME280;48149;51.132;7.178;2023-09-08T11:16:40;98906.41;;;60.17;13.84
62164;BME280;48149;51.132;7.178;2023-09-08T11:19:05;98901.59;;;60.39;13.35
62164;BME280;48149;51.132;7.178;2023-09-08T11:21:31;98905.03;;;59.40;14.49
62164;BME280;48149;51.132;7.178;2023-09-08T11:24:00;98900.75;;;60.98;13.90
62164;BME280;48149;51.132;7.178;2023-09-08T11:26:26;98910.44;;;59.83;14.46
62164;BME280;48149;51.132;7.178;2023-09-08T11:28:52;98906.19;;;62.66;12.73
62164;BME280;48149;51.132;7.178;2023-09-08T11:31:18;98903.56;;;60.31;13.63
62164;BME280;48149;51.132;7.178;2023-09-08T11:33:43;98900.53;;;60.28;13.74
62164;BME280;48149;51.132;7.178;2023-09-08T11:36:12;98904.16;;;58.44;14.18
62164;BME280;48149;51.132;7.178;2023-09-08T11:38:41;98890.16;;;58.57;14.63
62164;BME280;48149;51.132;7.178;2023-09-08T11:41:07;98889.63;;;63.00;12.93
62164;BME280;48149;51.132;7.178;2023-09-08T11:43:32;98893.59;;;62.39;13.37
62164;BME280;48149;51.132;7.178;2023-09-08T11:45:59;98887.25;;;60.37;14.00
62164;BME280;48149;51.132;7.178;2023-09-08T11:48:24;98881.03;;;57.84;14.90
62164;BME280;48149;51.132;7.178;2023-09-08T11:50:52;98886.56;;;60.44;13.97
62164;BME280;48149;51.132;7.178;2023-09-08T11:53:21;98890.44;;;60.67;13.42
62164;BME280;48149;51.132;7.178;2023-09-08T11:55:46;98892.34;;;61.06;13.08
62164;BME280;48149;51.132;7.178;2023-09-08T11:58:12;98895.22;;;60.59;13.73
62164;BME280;48149;51.132;7.178;2023-09-08T12:00:37;98892.06;;;60.62;13.65
62164;BME280;48149;51.132;7.178;2023-09-08T12:03:14;98878.06;;;58.75;14.22
62164;BME280;48149;51.132;7.178;2023-09-08T12:05:40;98888.41;;;60.54;13.74
62164;BME280;48149;51.132;7.178;2023-09-08T12:08:06;98891.22;;;62.14;13.21
62164;BME280;48149;51.132;7.178;2023-09-08T12:10:37;98891.75;;;62.05;12.84
62164;BME280;48149;51.132;7.178;2023-09-08T12:13:02;98895.69;;;63.57;12.56
62164;BME280;48149;51.132;7.178;2023-09-08T12:18:00;98888.38;;;62.58;12.32
62164;BME280;48149;51.132;7.178;2023-09-08T12:20:25;98873.50;;;61.08;13.75
62164;BME280;48149;51.132;7.178;2023-09-08T12:22:51;98875.53;;;62.57;12.55
62164;BME280;48149;51.132;7.178;2023-09-08T12:25:16;98871.25;;;59.02;13.77
62164;BME280;48149;51.132;7.178;2023-09-08T12:27:41;98863.44;;;60.19;13.67
62164;BME280;48149;51.132;7.178;2023-09-08T12:30:07;98866.69;;;62.75;12.92
62164;BME280;48149;51.132;7.178;2023-09-08T12:32:33;98875.47;;;64.01;12.29
62164;BME280;48149;51.132;7.178;2023-09-08T12:34:59;98860.59;;;61.77;13.08
62164;BME280;48149;51.132;7.178;2023-09-08T12:37:26;98852.28;;;61.79;12.71
62164;BME280;48149;51.132;7.178;2023-09-08T12:39:52;98863.59;;;63.79;13.05
62164;BME280;48149;51.132;7.178;2023-09-08T12:42:18;98862.06;;;59.99;13.06
62164;BME280;48149;51.132;7.178;2023-09-08T12:44:43;98850.84;;;61.08;12.92
62164;BME280;48149;51.132;7.178;2023-09-08T12:47:09;98852.00;;;59.19;13.23
62164;BME280;48149;51.132;7.178;2023-09-08T12:49:35;98860.47;;;61.34;12.56
62164;BME280;48149;51.132;7.178;2023-09-08T12:52:00;98842.53;;;58.48;13.70
62164;BME280;48149;51.132;7.178;2023-09-08T12:54:25;98859.03;;;61.40;12.57
62164;BME280;48149;51.132;7.178;2023-09-08T12:56:50;98858.72;;;60.35;12.99
62164;BME280;48149;51.132;7.178;2023-09-08T12:59:16;98868.25;;;64.47;11.53